Time;durP1;ratioP1;P1;durP2;ratioP2;P2;SDS_P1;SDS_P2;PMS_P1;PMS_P2;Temp;Humidity;BMP_temperature;BMP_pressure;BME280_temperature;BME280_humidity;BME280_pressure;Samples;Min_cycle;Max_cycle;Signal;HPM_P1;HPM_P2
2022/01/28 00:01:05;;;;;;;46.58;16.80;;;;;;;-4.05;82.60;95150.34;5074633;28;20285;-78
2022/01/28 00:03:33;;;;;;;28.38;12.25;;;;;;;-3.98;82.55;95146.59;5074308;28;20711;-78
2022/01/28 00:06:00;;;;;;;39.55;15.25;;;;;;;-4.08;82.45;95140.22;5074322;28;20207;-78
2022/01/28 00:08:27;;;;;;;22.10;11.60;;;;;;;-4.07;83.64;95139.19;5073986;28;20299;-77
2022/01/28 00:10:55;;;;;;;26.73;11.80;;;;;;;-4.22;83.66;95133.47;5074087;28;20199;-78
2022/01/28 00:13:25;;;;;;;28.95;10.88;;;;;;;-4.06;84.42;95143.44;5074497;28;20206;-78
2022/01/28 00:38:12;;;;;;;30.80;12.70;;;;;;;-4.11;80.96;95132.75;5073266;28;20562;-77
2022/01/28 00:40:39;;;;;;;28.70;11.75;;;;;;;-4.15;82.08;95124.44;5086161;28;20234;-77
2022/01/28 00:43:06;;;;;;;36.92;14.32;;;;;;;-4.33;82.28;95127.91;5072865;28;20222;-77
2022/01/28 00:45:33;;;;;;;37.53;14.30;;;;;;;-4.30;82.17;95126.66;5072986;28;20235;-77
2022/01/28 00:48:00;;;;;;;35.20;12.75;;;;;;;-4.28;82.05;95118.53;5073385;28;20565;-77
2022/01/28 00:50:29;;;;;;;22.73;10.07;;;;;;;-4.50;82.13;95124.25;5073475;28;20230;-77
2022/01/28 00:52:56;;;;;;;27.33;10.50;;;;;;;-4.48;82.68;95124.84;5073221;28;20246;-77
2022/01/28 00:55:23;;;;;;;23.00;10.30;;;;;;;-4.36;82.62;95112.50;5072646;28;20199;-76
2022/01/28 00:57:50;;;;;;;21.48;10.63;;;;;;;-4.26;82.67;95114.63;5072835;28;20219;-77
2022/01/28 01:00:17;;;;;;;18.23;7.97;;;;;;;-4.23;82.45;95108.06;5059490;28;20884;-76
2022/01/28 01:02:44;;;;;;;89.80;28.23;;;;;;;-4.26;82.68;95106.69;5072849;28;20221;-78
2022/01/28 01:05:11;;;;;;;42.33;17.20;;;;;;;-4.14;84.34;95098.81;5073051;28;20210;-77
2022/01/28 01:07:40;;;;;;;33.63;14.15;;;;;;;-3.96;83.74;95101.38;5072664;28;20241;-78
2022/01/28 01:10:08;;;;;;;27.40;9.77;;;;;;;-4.00;81.32;95087.81;5072696;28;20207;-77
2022/01/28 01:12:41;;;;;;;22.45;10.85;;;;;;;-3.95;82.40;95087.13;5072255;28;20206;-78
2022/01/28 01:15:09;;;;;;;25.77;12.80;;;;;;;-3.96;82.40;95085.50;5075554;28;20215;-78
2022/01/28 01:17:39;;;;;;;29.42;10.93;;;;;;;-4.08;80.80;95066.16;5081285;28;20238;-78
2022/01/28 01:20:19;;;;;;;21.88;8.65;;;;;;;-4.04;81.10;95075.25;5072974;28;20318;-77
2022/01/28 01:23:01;;;;;;;21.85;9.77;;;;;;;-4.21;81.85;95071.63;5073323;28;20259;-76
2022/01/28 01:25:28;;;;;;;14.55;7.75;;;;;;;-4.70;82.01;95070.84;5072692;28;20248;-77
2022/01/28 01:27:58;;;;;;;20.92;10.25;;;;;;;-4.88;83.03;95070.84;5072816;28;20206;-77
2022/01/28 01:30:27;;;;;;;19.65;7.13;;;;;;;-4.82;83.48;95059.41;5072539;28;20229;-78
2022/01/28 01:32:54;;;;;;;20.92;8.77;;;;;;;-4.71;83.32;95061.31;5073148;28;20199;-78
2022/01/28 01:35:21;;;;;;;22.25;8.93;;;;;;;-4.53;82.55;95053.38;5076081;28;20242;-78
2022/01/28 01:37:49;;;;;;;19.30;8.20;;;;;;;-4.49;82.55;95043.13;5080884;28;20727;-77
2022/01/28 01:40:25;;;;;;;18.05;8.85;;;;;;;-4.46;83.73;95043.50;5081303;28;20231;-77
2022/01/28 01:43:04;;;;;;;17.48;7.85;;;;;;;-4.58;83.08;95044.47;5079414;28;20249;-79
2022/01/28 01:45:55;;;;;;;21.00;9.02;;;;;;;-4.73;82.99;95042.22;5074319;28;20191;-78
2022/01/28 01:53:53;;;;;;;14.88;7.45;;;;;;;-4.32;79.46;95029.06;5072525;28;20213;-79
2022/01/28 01:56:21;;;;;;;16.67;6.97;;;;;;;-4.39;80.30;95033.66;5072000;28;20230;-78
2022/01/28 01:58:48;;;;;;;17.23;9.05;;;;;;;-4.61;80.22;95037.00;5072658;28;20211;-78
2022/01/28 02:01:15;;;;;;;17.42;7.30;;;;;;;-4.69;81.11;95043.41;5072404;28;20573;-78
2022/01/28 02:03:42;;;;;;;15.20;7.63;;;;;;;-4.50;81.58;95036.22;5072216;28;20203;-78
2022/01/28 02:06:09;;;;;;;21.23;7.32;;;;;;;-4.41;81.40;95037.53;5071829;28;20219;-78
2022/01/28 02:08:36;;;;;;;15.55;6.72;;;;;;;-4.39;80.18;95033.66;5072508;28;20206;-77
2022/01/28 02:11:04;;;;;;;13.95;6.05;;;;;;;-4.50;80.12;95039.69;5072275;28;20230;-79
2022/01/28 02:13:36;;;;;;;19.48;7.30;;;;;;;-4.53;79.63;95016.34;5071690;28;20314;-78
2022/01/28 02:16:03;;;;;;;22.52;8.30;;;;;;;-4.57;79.56;95024.94;5071540;28;20286;-77
2022/01/28 02:18:30;;;;;;;13.27;6.30;;;;;;;-4.67;80.55;95020.22;5071776;28;20242;-78
2022/01/28 02:21:05;;;;;;;11.23;6.60;;;;;;;-4.67;81.77;95020.22;5071719;28;20231;-79
2022/01/28 02:23:32;;;;;;;10.02;4.72;;;;;;;-4.38;80.17;95003.53;5072524;28;20206;-79
2022/01/28 02:26:00;;;;;;;14.20;6.05;;;;;;;-4.62;81.32;95006.31;5071536;28;20206;-78
2022/01/28 02:28:30;;;;;;;17.15;6.20;;;;;;;-4.72;81.04;95005.00;5071506;28;20658;-79
2022/01/28 02:30:57;;;;;;;16.05;5.70;;;;;;;-4.80;81.41;95000.06;5072062;28;20408;-78
2022/01/28 02:33:26;;;;;;;24.15;10.25;;;;;;;-4.83;82.56;95000.50;5058237;28;20309;-77
2022/01/28 02:35:53;;;;;;;42.80;17.48;;;;;;;-4.83;82.66;94992.56;5071429;28;20207;-78
2022/01/28 02:38:24;;;;;;;25.77;10.57;;;;;;;-4.68;82.28;94997.44;5071799;28;20229;-77
2022/01/28 02:40:56;;;;;;;21.08;9.48;;;;;;;-4.61;81.50;95015.84;5071372;28;20253;-77
2022/01/28 02:43:32;;;;;;;125.55;56.08;;;;;;;-4.77;82.69;95009.34;5071782;28;20227;-78
2022/01/28 02:46:06;;;;;;;23.30;11.63;;;;;;;-4.83;82.86;95011.06;5071393;28;20193;-78
2022/01/28 02:48:34;;;;;;;16.58;6.35;;;;;;;-4.55;81.85;94999.09;5071526;28;20234;-77
2022/01/28 02:51:06;;;;;;;17.15;6.70;;;;;;;-4.39;81.65;95004.56;5071014;28;20284;-78
2022/01/28 02:53:46;;;;;;;14.63;6.25;;;;;;;-4.39;80.52;95011.69;5071311;28;20195;-78
2022/01/28 02:56:17;;;;;;;9.15;4.88;;;;;;;-4.50;80.69;95015.09;5058603;28;20240;-77
2022/01/28 02:58:45;;;;;;;13.57;5.68;;;;;;;-4.39;82.17;94985.25;5071190;28;20282;-78
2022/01/28 03:01:14;;;;;;;17.95;5.85;;;;;;;-4.28;81.21;94981.03;5080424;28;20234;-77
2022/01/28 03:03:42;;;;;;;17.30;6.35;;;;;;;-4.28;80.90;94986.31;5074068;28;20653;-78
2022/01/28 03:06:10;;;;;;;27.25;8.43;;;;;;;-4.42;80.40;94986.50;5071169;28;20199;-78
2022/01/28 03:08:42;;;;;;;17.65;6.55;;;;;;;-4.55;81.93;94986.69;5071202;28;20645;-78
2022/01/28 03:11:42;;;;;;;13.35;5.28;;;;;;;-4.45;80.61;94986.94;5071495;28;20195;-78
2022/01/28 03:14:17;;;;;;;8.93;4.65;;;;;;;-4.54;81.27;94972.47;5051009;28;20212;-78
2022/01/28 03:19:29;;;;;;;6.30;3.30;;;;;;;-4.48;82.15;94960.97;5069389;28;20238;-77
2022/01/28 03:21:57;;;;;;;15.25;5.28;;;;;;;-4.57;82.49;94950.94;5071685;28;20221;-78
2022/01/28 03:24:27;;;;;;;12.10;5.30;;;;;;;-4.45;82.93;94955.22;5070870;28;20581;-77
2022/01/28 03:27:00;;;;;;;7.35;3.72;;;;;;;-4.32;82.42;94955.03;5056578;28;20366;-78
2022/01/28 03:29:27;;;;;;;13.43;4.68;;;;;;;-4.32;83.23;94959.50;5071556;28;20195;-77
2022/01/28 03:31:53;;;;;;;17.38;5.65;;;;;;;-4.28;83.60;94970.44;5077229;28;20229;-77
2022/01/28 03:34:21;;;;;;;14.77;5.63;;;;;;;-4.45;83.79;94960.53;5077297;28;20229;-78
2022/01/28 03:36:47;;;;;;;16.92;7.53;;;;;;;-4.47;84.25;94962.59;5077771;28;20226;-78
2022/01/28 03:39:14;;;;;;;12.50;5.85;;;;;;;-4.51;83.60;94945.56;5077487;28;20218;-78
2022/01/28 03:41:43;;;;;;;8.68;3.97;;;;;;;-4.54;83.63;94935.47;5076965;28;20732;-78
2022/01/28 03:44:10;;;;;;;12.02;4.70;;;;;;;-4.49;83.67;94938.22;5077181;28;20214;-77
2022/01/28 03:46:37;;;;;;;13.27;4.85;;;;;;;-4.48;83.95;94949.59;5077084;28;20230;-77
2022/01/28 03:49:04;;;;;;;12.13;4.75;;;;;;;-4.41;84.56;94951.13;5077095;28;20237;-77
2022/01/28 03:51:32;;;;;;;19.42;5.57;;;;;;;-4.32;84.19;94939.16;5076881;28;20215;-77
2022/01/28 03:53:59;;;;;;;18.90;7.63;;;;;;;-4.23;83.33;94923.75;5073350;28;20222;-77
2022/01/28 03:56:26;;;;;;;13.60;5.18;;;;;;;-4.27;83.10;94924.47;5063634;28;20206;-78
2022/01/28 03:58:54;;;;;;;20.20;6.20;;;;;;;-4.40;83.66;94926.28;5077478;28;20284;-77
2022/01/28 04:01:26;;;;;;;20.83;7.13;;;;;;;-4.54;84.67;94930.16;5076543;28;20230;-77
2022/01/28 04:04:28;;;;;;;12.55;4.68;;;;;;;-4.47;85.08;94927.41;5077356;28;20226;-76
2022/01/28 04:12:36;;;;;;;11.10;4.95;;;;;;;-4.14;82.88;94903.09;5054607;28;20203;-78
2022/01/28 04:15:19;;;;;;;15.50;5.72;;;;;;;-4.33;81.48;94905.81;5067821;28;20593;-77
2022/01/28 04:17:46;;;;;;;12.13;5.57;;;;;;;-4.38;82.05;94907.56;5076975;28;20246;-77
2022/01/28 04:20:13;;;;;;;15.85;5.65;;;;;;;-4.35;82.29;94913.19;5076795;28;20210;-79
2022/01/28 04:22:40;;;;;;;10.57;5.72;;;;;;;-4.28;82.75;94921.03;5077300;28;20234;-78
2022/01/28 04:25:08;;;;;;;14.68;6.20;;;;;;;-4.52;81.49;94928.09;5076994;28;20210;-78
2022/01/28 04:27:34;;;;;;;34.10;15.63;;;;;;;-4.83;83.02;94941.56;5077116;28;20195;-78
2022/01/28 04:30:01;;;;;;;52.22;18.45;;;;;;;-4.65;83.40;94949.44;5063483;28;20249;-79
2022/01/28 04:32:31;;;;;;;33.08;14.60;;;;;;;-4.58;83.83;94939.56;5076979;28;20226;-80
2022/01/28 04:34:58;;;;;;;19.83;7.85;;;;;;;-4.40;82.71;94944.78;5064532;28;20233;-78
2022/01/28 04:37:31;;;;;;;16.48;7.07;;;;;;;-4.33;81.81;94942.84;5074580;28;20222;-78
2022/01/28 04:40:06;;;;;;;19.60;8.70;;;;;;;-4.23;82.39;94928.25;5076286;28;20223;-78
2022/01/28 04:42:53;;;;;;;26.48;11.40;;;;;;;2.32;97.97;94897.50;5075769;28;20230;-77
2022/01/28 04:45:27;;;;;;;32.67;13.35;;;;;;;-0.17;96.84;94904.59;5075802;28;20225;-77
2022/01/28 04:48:06;;;;;;;33.10;16.15;;;;;;;-0.93;89.17;94898.50;5054197;28;20227;-77
2022/01/28 04:50:41;;;;;;;42.60;17.92;;;;;;;-2.83;82.57;94925.41;5067590;28;20306;-78
2022/01/28 04:53:25;;;;;;;41.42;17.45;;;;;;;-3.19;87.23;94926.56;5073785;28;20344;-79
2022/01/28 04:56:12;;;;;;;47.58;15.05;;;;;;;-3.85;87.04;94951.66;5075924;28;20191;-80
2022/01/28 04:58:54;;;;;;;24.88;11.52;;;;;;;-4.14;85.64;94950.69;5077152;28;20197;-78
2022/01/28 05:01:47;;;;;;;23.25;11.95;;;;;;;-4.37;84.80;94946.97;5073421;28;20539;-77
2022/01/28 05:04:43;;;;;;;35.67;12.43;;;;;;;-4.46;83.61;94948.34;5060900;28;20199;-78
2022/01/28 05:07:30;;;;;;;26.83;11.20;;;;;;;-4.56;83.53;94937.50;5073554;28;20201;-77
2022/01/28 05:13:17;;;;;;;18.95;7.43;;;;;;;-4.51;82.58;94950.06;5072005;28;20210;-78
2022/01/28 05:16:15;;;;;;;17.52;6.95;;;;;;;-4.67;83.05;94940.94;5061359;28;20621;-78
2022/01/28 05:24:43;;;;;;;17.10;8.68;;;;;;;-4.73;83.87;94920.69;5072702;28;20244;-80
2022/01/28 05:27:12;;;;;;;19.30;6.13;;;;;;;-4.81;83.15;94944.78;5061707;28;20195;-78
2022/01/28 05:29:39;;;;;;;18.55;7.70;;;;;;;-4.79;84.68;94948.03;5073219;28;20309;-78
2022/01/28 05:32:07;;;;;;;21.40;7.40;;;;;;;-4.87;84.69;94941.19;5072675;28;20268;-79
2022/01/28 05:34:34;;;;;;;33.15;11.75;;;;;;;-4.77;84.69;94941.47;5073314;28;20230;-77
2022/01/28 05:37:06;;;;;;;17.38;7.90;;;;;;;-4.81;84.03;94940.31;5072699;28;20218;-79
2022/01/28 05:39:33;;;;;;;60.80;19.30;;;;;;;-4.49;85.37;94954.06;5071668;28;20623;-78
2022/01/28 05:42:00;;;;;;;44.22;12.85;;;;;;;-4.48;83.58;94941.66;5071646;28;20645;-77
2022/01/28 05:44:27;;;;;;;31.55;10.27;;;;;;;-4.32;83.25;94941.81;5072410;28;20226;-78
2022/01/28 05:46:56;;;;;;;25.60;7.72;;;;;;;-4.37;81.44;94952.25;5072948;28;20689;-79
2022/01/28 05:49:23;;;;;;;16.02;6.40;;;;;;;-4.40;80.49;94957.22;5071199;28;20278;-77
2022/01/28 05:51:50;;;;;;;23.33;10.48;;;;;;;-4.52;82.14;94951.91;5066305;28;20233;-78
2022/01/28 05:54:18;;;;;;;17.73;8.13;;;;;;;-4.40;81.29;94941.34;5072139;28;20681;-79
2022/01/28 05:56:45;;;;;;;28.40;7.22;;;;;;;-4.35;80.93;94942.25;5072189;28;20668;-76
2022/01/28 05:59:12;;;;;;;18.27;7.55;;;;;;;-4.37;80.60;94951.44;5072029;28;20221;-78
2022/01/28 06:01:40;;;;;;;16.48;7.95;;;;;;;-4.31;79.94;94955.84;5071733;28;20222;-78
2022/01/28 06:04:07;;;;;;;23.42;8.82;;;;;;;-4.32;79.89;94948.94;5071448;28;20248;-77
2022/01/28 06:06:34;;;;;;;13.18;6.97;;;;;;;-4.02;80.14;94959.44;5071432;28;20661;-77
2022/01/28 06:09:01;;;;;;;25.70;8.85;;;;;;;-3.33;79.24;94945.38;5071811;28;20203;-77
2022/01/28 06:11:29;;;;;;;25.65;9.32;;;;;;;-2.59;76.42;94930.34;5071230;28;20223;-78
2022/01/28 06:13:56;;;;;;;19.13;7.30;;;;;;;-2.06;74.36;94946.91;5071551;28;20230;-78
2022/01/28 06:16:22;;;;;;;23.23;8.50;;;;;;;-1.46;71.63;94947.81;5072051;28;20229;-77
2022/01/28 06:18:49;;;;;;;19.05;8.05;;;;;;;-1.86;71.77;94948.03;5072000;28;20235;-78
2022/01/28 06:21:17;;;;;;;19.92;8.55;;;;;;;-2.01;71.47;94960.25;5076545;28;20210;-78
2022/01/28 06:23:44;;;;;;;33.78;13.77;;;;;;;-1.95;71.13;94964.59;5070915;28;20432;-78
2022/01/28 06:26:11;;;;;;;19.02;4.90;;;;;;;-1.52;69.68;94971.91;5065991;28;20287;-79
2022/01/28 06:28:39;;;;;;;31.13;15.43;;;;;;;-0.99;69.17;94973.97;5071051;28;20219;-79
2022/01/28 06:31:07;;;;;;;16.65;7.70;;;;;;;-0.25;67.06;94971.56;5070580;28;20195;-79
2022/01/28 06:33:33;;;;;;;17.80;8.20;;;;;;;0.49;63.36;94971.69;5071277;28;20226;-79
2022/01/28 06:36:02;;;;;;;13.65;6.78;;;;;;;0.85;61.64;94962.03;5070946;28;20222;-77
2022/01/28 06:38:29;;;;;;;21.33;7.75;;;;;;;0.89;60.81;94962.31;5071406;28;20258;-77
2022/01/28 06:40:56;;;;;;;16.40;7.78;;;;;;;1.10;60.76;94972.00;5071514;28;20214;-78
2022/01/28 06:43:22;;;;;;;22.27;8.98;;;;;;;1.72;59.61;94955.16;5071064;28;20237;-79
2022/01/28 06:45:51;;;;;;;27.73;9.38;;;;;;;1.81;58.97;94945.56;5070846;28;20230;-81
2022/01/28 06:48:19;;;;;;;33.47;10.35;;;;;;;1.42;59.37;94948.69;5071158;28;20233;-78
2022/01/28 06:50:46;;;;;;;23.65;7.53;;;;;;;1.26;60.24;94944.34;5070837;28;20328;-79
2022/01/28 06:53:14;;;;;;;28.38;11.88;;;;;;;1.31;60.23;94948.91;5070748;28;20207;-80
2022/01/28 06:55:43;;;;;;;25.80;12.25;;;;;;;1.27;60.97;94951.28;5070841;28;20560;-78
2022/01/28 06:58:10;;;;;;;38.47;12.20;;;;;;;0.81;62.11;94965.50;5070909;28;20210;-77
2022/01/28 07:00:38;;;;;;;32.47;11.70;;;;;;;0.06;63.27;94963.88;5052214;28;20219;-79
2022/01/28 07:03:08;;;;;;;19.10;8.43;;;;;;;-0.58;65.87;94971.78;5061526;28;20223;-78
2022/01/28 07:05:35;;;;;;;24.70;10.30;;;;;;;-1.30;69.18;94979.91;5070580;28;20226;-79
2022/01/28 07:08:02;;;;;;;24.02;12.80;;;;;;;-1.61;71.88;94971.50;5071372;28;20203;-78
2022/01/28 07:10:31;;;;;;;31.50;10.90;;;;;;;-1.80;73.44;94986.91;5070929;28;20226;-79
2022/01/28 07:12:58;;;;;;;32.05;13.52;;;;;;;-1.64;73.19;94995.09;5070944;28;20203;-79
2022/01/28 07:15:25;;;;;;;33.05;10.27;;;;;;;-1.49;73.76;95000.63;5070293;28;20713;-78
2022/01/28 07:17:53;;;;;;;25.58;11.10;;;;;;;-1.23;72.37;94999.16;5070427;28;20255;-78
2022/01/28 07:20:21;;;;;;;29.30;10.15;;;;;;;-0.98;71.73;94996.84;5070861;28;20204;-78
2022/01/28 07:22:49;;;;;;;30.63;9.65;;;;;;;-0.60;71.39;94998.63;5071110;28;20284;-78
2022/01/28 07:25:16;;;;;;;18.15;9.25;;;;;;;-0.53;69.99;94987.78;5070276;28;20207;-77
2022/01/28 07:27:43;;;;;;;22.38;8.50;;;;;;;-0.31;70.37;94990.41;5070859;28;20310;-79
2022/01/28 07:30:11;;;;;;;28.63;9.40;;;;;;;-0.63;70.68;95003.63;5070890;28;20210;-78
2022/01/28 07:32:38;;;;;;;22.88;9.13;;;;;;;-0.45;70.39;94995.31;5070675;28;20226;-80
2022/01/28 07:35:05;;;;;;;30.15;11.15;;;;;;;-0.21;71.24;94995.84;5070276;28;20223;-79
2022/01/28 07:37:33;;;;;;;33.47;11.20;;;;;;;-0.51;71.04;95001.63;5071095;28;20287;-79
2022/01/28 07:40:02;;;;;;;25.45;10.32;;;;;;;-0.60;71.67;95014.59;5070687;28;20199;-79
2022/01/28 07:42:33;;;;;;;29.35;11.15;;;;;;;-0.56;71.42;95014.91;5069875;28;20343;-78
2022/01/28 07:45:00;;;;;;;23.95;8.45;;;;;;;-0.57;72.18;95015.94;5070424;28;20202;-78
2022/01/28 07:47:27;;;;;;;25.38;10.55;;;;;;;-0.35;71.76;95022.03;5070497;28;20215;-78
2022/01/28 07:49:54;;;;;;;23.63;11.10;;;;;;;0.08;70.00;94999.03;5070735;28;20195;-78
2022/01/28 07:52:21;;;;;;;22.65;9.13;;;;;;;0.25;69.57;95013.84;5074010;28;20213;-77
2022/01/28 07:54:50;;;;;;;24.35;11.27;;;;;;;0.20;68.89;95018.31;5080468;28;20285;-77
2022/01/28 07:57:17;;;;;;;26.58;10.95;;;;;;;0.54;69.00;95019.69;5069271;28;20697;-78
2022/01/28 07:59:44;;;;;;;23.13;11.43;;;;;;;0.61;67.42;95025.59;5070434;28;20544;-78
2022/01/28 08:02:11;;;;;;;22.35;9.57;;;;;;;0.24;67.16;95038.09;5070726;28;20202;-78
2022/01/28 08:04:39;;;;;;;15.52;7.28;;;;;;;-0.35;68.14;95038.00;5070500;28;20203;-78
2022/01/28 08:07:06;;;;;;;24.38;7.75;;;;;;;-0.38;69.66;95039.31;5070652;28;20203;-77
2022/01/28 08:09:33;;;;;;;11.98;4.43;;;;;;;-0.17;69.25;95027.03;5070872;28;20222;-77
2022/01/28 08:12:01;;;;;;;19.92;7.05;;;;;;;0.07;67.83;95013.41;5071050;28;20199;-77
2022/01/28 08:14:31;;;;;;;23.13;9.60;;;;;;;0.00;69.20;95003.75;5086184;28;20210;-76
2022/01/28 08:16:58;;;;;;;16.60;7.60;;;;;;;0.08;67.75;95009.69;5075484;28;20320;-77
2022/01/28 08:19:25;;;;;;;22.05;7.68;;;;;;;0.07;67.76;95000.09;5074297;28;20649;-76
2022/01/28 08:21:52;;;;;;;9.70;3.67;;;;;;;-0.22;68.85;94999.56;5080680;28;20205;-76
2022/01/28 08:24:19;;;;;;;14.60;6.15;;;;;;;-0.07;68.44;94992.53;5080932;28;20287;-76
2022/01/28 08:26:46;;;;;;;20.48;6.80;;;;;;;0.07;69.96;94981.47;5073275;28;20214;-76
2022/01/28 08:29:14;;;;;;;22.48;7.15;;;;;;;0.39;67.68;94979.59;5074001;28;20624;-77
2022/01/28 08:31:41;;;;;;;13.95;5.53;;;;;;;0.40;67.22;94970.56;5060925;28;20219;-78
2022/01/28 08:34:08;;;;;;;11.65;4.28;;;;;;;0.20;65.93;94973.03;5074012;28;20223;-77
2022/01/28 08:36:35;;;;;;;10.55;5.95;;;;;;;0.18;66.66;94983.16;5060213;28;20210;-76
2022/01/28 08:39:05;;;;;;;7.68;4.30;;;;;;;0.30;66.51;94981.09;5073830;28;20210;-75
2022/01/28 08:41:33;;;;;;;11.50;4.93;;;;;;;0.65;65.40;94981.38;5073590;28;20228;-75
2022/01/28 08:43:59;;;;;;;22.92;8.68;;;;;;;0.84;64.68;94979.09;5073476;28;20326;-76
2022/01/28 08:46:28;;;;;;;24.33;7.10;;;;;;;0.94;63.17;94981.03;5073429;28;20223;-76
2022/01/28 08:48:54;;;;;;;18.98;8.15;;;;;;;1.13;63.52;94984.84;5073724;28;20202;-76
2022/01/28 08:51:22;;;;;;;8.10;4.35;;;;;;;1.20;62.95;95001.44;5073576;28;20198;-77
2022/01/28 08:53:49;;;;;;;17.73;6.55;;;;;;;1.06;63.10;94994.97;5073708;28;20221;-75
2022/01/28 08:56:16;;;;;;;22.88;7.53;;;;;;;1.14;63.41;94991.78;5073006;28;20233;-76
2022/01/28 08:58:42;;;;;;;16.33;7.63;;;;;;;1.33;63.93;95006.28;5072705;28;20203;-76
2022/01/28 09:01:11;;;;;;;30.33;9.13;;;;;;;1.39;62.31;94999.91;5073167;28;20665;-76
2022/01/28 09:03:40;;;;;;;16.88;7.15;;;;;;;1.42;63.28;95009.25;5073388;28;20326;-74
2022/01/28 09:06:07;;;;;;;22.45;8.77;;;;;;;1.83;62.96;94999.50;5073305;28;20195;-75
2022/01/28 09:08:34;;;;;;;15.02;6.80;;;;;;;1.61;63.29;95001.59;5073142;28;20227;-75
2022/01/28 09:11:29;;;;;;;32.70;11.00;;;;;;;1.81;61.64;94990.97;5084031;28;20226;-76
2022/01/28 09:13:49;;;;;;;19.67;7.00;;;;;;;1.48;62.12;94991.41;5059924;28;20207;-76
2022/01/28 09:16:17;;;;;;;24.58;9.23;;;;;;;1.85;61.96;94997.38;5072883;28;20203;-74
2022/01/28 09:18:45;;;;;;;19.85;8.73;;;;;;;2.00;61.13;94993.94;5073007;28;20250;-75
2022/01/28 09:21:12;;;;;;;28.55;8.25;;;;;;;2.33;60.47;94971.25;5073762;28;20210;-76
2022/01/28 09:23:39;;;;;;;39.35;16.77;;;;;;;2.01;60.85;94980.31;5084390;28;20708;-76
2022/01/28 09:26:07;;;;;;;24.60;10.05;;;;;;;2.34;61.15;94999.56;5072779;28;20661;-76
2022/01/28 09:28:34;;;;;;;37.42;16.15;;;;;;;2.65;60.89;94995.84;5073021;28;20250;-76
2022/01/28 09:31:01;;;;;;;24.02;11.25;;;;;;;3.14;59.61;94997.91;5071953;28;20231;-76
2022/01/28 09:33:28;;;;;;;30.02;11.63;;;;;;;3.47;58.77;94986.56;5072648;28;20574;-75
2022/01/28 09:35:56;;;;;;;38.65;16.67;;;;;;;4.28;56.43;94991.47;5073134;28;20206;-76
2022/01/28 09:38:23;;;;;;;40.13;18.20;;;;;;;4.49;56.12;94986.78;5072549;28;20226;-77
2022/01/28 09:40:51;;;;;;;41.28;20.45;;;;;;;4.36;54.87;95000.00;5073649;28;20219;-75
2022/01/28 09:43:18;;;;;;;40.05;20.55;;;;;;;4.28;55.01;94996.03;5084691;28;20241;-74
2022/01/28 09:45:48;;;;;;;47.08;21.02;;;;;;;4.74;55.03;94993.81;5078821;28;20629;-75
2022/01/28 09:48:15;;;;;;;42.40;19.70;;;;;;;5.18;53.73;94988.28;5082183;28;20310;-74
2022/01/28 09:50:43;;;;;;;41.90;19.45;;;;;;;5.75;55.16;94981.16;5076126;28;20198;-75
2022/01/28 09:53:11;;;;;;;40.90;19.38;;;;;;;6.04;54.11;94981.09;5081053;28;20733;-75
2022/01/28 09:55:38;;;;;;;47.67;20.02;;;;;;;6.06;53.04;94976.22;5072220;28;20195;-75
2022/01/28 09:58:04;;;;;;;43.85;21.30;;;;;;;6.54;52.53;94962.59;5072265;28;20199;-75
2022/01/28 10:00:33;;;;;;;40.92;19.85;;;;;;;6.06;51.04;94976.22;5071309;28;20680;-76
2022/01/28 10:03:03;;;;;;;41.28;20.48;;;;;;;5.45;52.37;94976.19;5071924;28;20199;-78
2022/01/28 10:05:32;;;;;;;43.35;20.15;;;;;;;4.74;52.42;94977.69;5071958;28;20250;-77
2022/01/28 10:08:05;;;;;;;37.70;19.55;;;;;;;4.01;55.57;94983.06;5071785;28;20213;-77
2022/01/28 10:10:52;;;;;;;53.10;26.30;;;;;;;3.97;57.67;94990.06;5071666;28;20226;-79
2022/01/28 10:13:25;;;;;;;51.75;25.13;;;;;;;4.23;57.19;94980.81;5072066;28;20313;-78
2022/01/28 10:16:07;;;;;;;60.88;29.63;;;;;;;4.68;54.64;94984.19;5071841;28;20195;-78
2022/01/28 10:18:50;;;;;;;64.03;32.55;;;;;;;4.14;55.37;94993.16;5071614;28;20223;-78
2022/01/28 10:21:32;;;;;;;55.65;28.20;;;;;;;4.12;55.62;94992.66;5072690;28;20229;-79
2022/01/28 10:24:21;;;;;;;61.80;29.45;;;;;;;4.12;57.52;94992.66;5082139;28;20276;-77
2022/01/28 10:26:51;;;;;;;59.97;27.27;;;;;;;4.26;56.79;94985.56;5071730;28;20223;-78
2022/01/28 10:29:20;;;;;;;54.15;24.63;;;;;;;4.47;55.30;94983.56;5071518;28;20230;-78
2022/01/28 10:31:53;;;;;;;55.58;27.25;;;;;;;4.77;56.26;94987.88;5057601;28;20617;-77
2022/01/28 10:34:23;;;;;;;50.50;26.50;;;;;;;4.68;56.11;95002.16;5072937;28;20210;-77
2022/01/28 10:36:51;;;;;;;69.05;33.13;;;;;;;4.17;57.76;95000.66;5082454;28;20693;-76
2022/01/28 10:39:20;;;;;;;69.20;34.50;;;;;;;3.49;58.27;95005.84;5071610;28;20199;-76
2022/01/28 10:41:57;;;;;;;70.50;36.38;;;;;;;3.47;58.31;94991.91;5070944;28;20222;-75
2022/01/28 10:44:25;;;;;;;90.53;40.03;;;;;;;3.30;58.86;95007.50;5071250;28;20594;-76
2022/01/28 10:46:57;;;;;;;80.10;39.33;;;;;;;3.34;58.43;95003.19;5071467;28;20367;-76
2022/01/28 10:49:32;;;;;;;87.40;40.13;;;;;;;2.80;61.86;95006.53;5071854;28;20553;-78
2022/01/28 10:52:08;;;;;;;90.05;41.95;;;;;;;2.88;60.16;95005.16;5071318;28;20222;-77
2022/01/28 10:54:36;;;;;;;89.13;41.55;;;;;;;2.91;59.21;95004.63;5058892;28;20202;-78
2022/01/28 10:57:08;;;;;;;95.40;45.10;;;;;;;3.01;59.21;94998.47;5071540;28;20203;-76
2022/01/28 10:59:38;;;;;;;81.28;40.63;;;;;;;3.16;62.25;95001.09;5061671;28;20250;-77
2022/01/28 11:02:05;;;;;;;84.32;40.78;;;;;;;3.61;59.53;94997.47;5066641;28;20195;-77
2022/01/28 11:04:33;;;;;;;87.35;41.20;;;;;;;3.66;58.37;94999.34;5070559;28;20240;-75
2022/01/28 11:07:03;;;;;;;82.90;38.97;;;;;;;3.74;57.41;94990.72;5068725;28;20226;-77
2022/01/28 11:09:31;;;;;;;84.15;40.67;;;;;;;3.82;59.04;94982.13;5071063;28;20206;-76
2022/01/28 11:11:58;;;;;;;79.93;40.47;;;;;;;3.98;58.29;94988.16;5070324;28;20207;-76
2022/01/28 11:14:26;;;;;;;83.00;41.50;;;;;;;3.83;59.68;94989.06;5070761;28;20692;-75
2022/01/28 11:16:56;;;;;;;86.93;40.90;;;;;;;3.91;57.30;94980.47;5071181;28;20207;-77
2022/01/28 11:19:25;;;;;;;76.78;39.63;;;;;;;3.88;58.72;94976.44;5070482;28;20230;-77
2022/01/28 11:22:11;;;;;;;79.93;37.20;;;;;;;3.81;58.68;94972.47;5071003;28;20650;-77
2022/01/28 11:24:57;;;;;;;69.75;35.63;;;;;;;3.83;59.16;94967.63;5070768;28;20688;-75
2022/01/28 11:27:29;;;;;;;57.85;28.00;;;;;;;3.86;59.63;94969.75;5070899;28;20231;-75
2022/01/28 11:30:27;;;;;;;47.22;26.15;;;;;;;3.84;59.51;94969.22;5071045;28;20191;-77
2022/01/28 11:33:03;;;;;;;43.28;21.17;;;;;;;3.87;59.89;94968.69;5070583;28;20203;-76
2022/01/28 11:35:33;;;;;;;30.95;15.57;;;;;;;3.80;60.14;94962.84;5070538;28;20576;-75
2022/01/28 11:38:04;;;;;;;32.25;14.52;;;;;;;3.84;60.31;94969.22;5070530;28;20222;-77
2022/01/28 11:40:44;;;;;;;30.17;16.52;;;;;;;3.98;59.96;94962.16;5069649;28;20334;-77
2022/01/28 11:43:18;;;;;;;30.00;14.88;;;;;;;4.01;59.18;94963.50;5069382;28;20223;-77
2022/01/28 11:45:47;;;;;;;28.23;15.18;;;;;;;4.01;60.48;94953.59;5070584;28;20222;-76
2022/01/28 11:48:14;;;;;;;37.47;16.52;;;;;;;4.04;60.53;94953.03;5073748;28;20202;-77
2022/01/28 11:50:40;;;;;;;24.40;12.07;;;;;;;4.13;60.79;94953.22;5067163;28;20219;-75
2022/01/28 11:53:24;;;;;;;27.23;13.57;;;;;;;4.22;62.38;94951.59;5074063;28;20195;-78
2022/01/28 11:56:02;;;;;;;20.80;11.70;;;;;;;4.25;62.67;94949.13;5074090;28;20221;-77
2022/01/28 11:58:54;;;;;;;17.33;8.85;;;;;;;4.44;62.58;94943.09;5073042;28;20613;-76
2022/01/28 12:01:46;;;;;;;18.90;9.60;;;;;;;4.50;62.84;94944.66;5064110;28;20592;-76
2022/01/28 12:04:37;;;;;;;24.05;10.20;;;;;;;4.78;62.94;94935.81;5071891;28;20306;-76
2022/01/28 12:07:05;;;;;;;16.55;8.43;;;;;;;4.80;62.54;94939.00;5068109;28;21011;-77
2022/01/28 12:09:35;;;;;;;16.60;8.13;;;;;;;4.74;62.31;94937.47;5072160;28;20679;-76
2022/01/28 12:12:03;;;;;;;16.45;7.90;;;;;;;4.71;63.02;94927.28;5072527;28;20195;-78
2022/01/28 12:15:00;;;;;;;14.73;7.78;;;;;;;4.85;62.69;94927.41;5073138;28;20188;-78
2022/01/28 12:17:49;;;;;;;13.07;7.28;;;;;;;4.84;63.12;94929.28;5063848;28;20226;-78
2022/01/28 12:20:37;;;;;;;15.75;8.77;;;;;;;4.83;63.58;94930.38;5072381;28;20191;-78
2022/01/28 12:23:20;;;;;;;13.68;7.10;;;;;;;4.85;63.44;94930.09;5071436;28;20215;-77
2022/01/28 12:25:49;;;;;;;14.77;7.40;;;;;;;5.21;62.85;94928.63;5071044;28;20223;-77